createdAt,value
2022-12-14T02:18:51.728Z,15.40
2022-12-14T02:21:43.064Z,14.80
2022-12-14T02:24:31.745Z,14.60
2022-12-14T02:27:10.155Z,15.00
2022-12-14T02:29:48.136Z,12.30
2022-12-14T02:32:14.756Z,10.30
2022-12-14T02:34:46.478Z,9.50
2022-12-14T02:37:28.055Z,8.90
2022-12-14T02:40:01.026Z,9.40
2022-12-14T02:42:49.058Z,9.60
2022-12-14T02:45:40.842Z,8.70
2022-12-14T02:48:29.340Z,8.40
2022-12-14T02:51:28.527Z,9.90
2022-12-14T02:54:00.292Z,8.60
2022-12-14T02:56:31.697Z,8.00
2022-12-14T02:58:58.314Z,8.80
2022-12-14T03:01:25.889Z,10.20
2022-12-14T03:03:52.915Z,11.10
2022-12-14T03:06:26.261Z,10.50
2022-12-14T03:09:01.050Z,11.40
2022-12-14T03:11:36.788Z,11.20
2022-12-14T03:14:06.920Z,11.70
2022-12-14T03:16:37.348Z,10.30
2022-12-14T03:19:37.751Z,12.60
2022-12-14T03:22:13.564Z,12.00
2022-12-14T03:24:44.774Z,11.80
2022-12-14T03:27:21.504Z,13.00
2022-12-14T03:29:50.404Z,11.30
2022-12-14T03:32:19.317Z,11.10
2022-12-14T03:34:57.562Z,12.40
2022-12-14T03:37:32.991Z,11.70
2022-12-14T03:39:59.620Z,12.80
2022-12-14T03:42:31.508Z,14.70
2022-12-14T03:45:05.094Z,13.00
2022-12-14T03:48:05.549Z,13.90
2022-12-14T03:50:38.230Z,11.60
2022-12-14T03:53:12.566Z,12.00
2022-12-14T03:55:48.979Z,11.70
2022-12-14T03:58:40.980Z,11.70
2022-12-14T04:01:13.046Z,12.20
2022-12-14T04:03:56.634Z,12.70
2022-12-14T04:06:34.357Z,12.80
2022-12-14T04:09:18.273Z,11.20
2022-12-14T04:12:10.030Z,14.00
2022-12-14T04:14:56.426Z,15.70
2022-12-14T04:17:47.322Z,13.50
2022-12-14T04:20:48.015Z,12.00
2022-12-14T04:23:37.871Z,12.20
2022-12-14T04:26:06.365Z,11.80
2022-12-14T04:29:00.837Z,11.00
2022-12-14T04:33:55.669Z,11.30
2022-12-14T04:36:24.139Z,12.40
2022-12-14T04:38:53.778Z,11.60
2022-12-14T04:41:22.353Z,12.20
2022-12-14T04:43:49.279Z,11.00
2022-12-14T04:46:17.997Z,11.70
2022-12-14T04:49:03.141Z,11.60
2022-12-14T04:51:46.560Z,12.10
2022-12-14T04:54:23.235Z,13.40
2022-12-14T04:56:52.231Z,12.30
2022-12-14T04:59:18.949Z,15.00
2022-12-14T05:01:57.466Z,14.70
2022-12-14T05:04:43.023Z,16.50
2022-12-14T05:07:09.628Z,17.20
2022-12-14T05:09:43.175Z,15.10
2022-12-14T05:12:15.860Z,20.20
2022-12-14T05:14:46.295Z,23.00
2022-12-14T05:17:12.974Z,21.90
2022-12-14T05:19:48.669Z,20.10
2022-12-14T05:22:15.970Z,19.50
2022-12-14T05:24:42.619Z,17.00
2022-12-14T05:27:09.384Z,13.40
2022-12-14T05:29:36.099Z,14.20
2022-12-14T05:32:02.875Z,12.80
2022-12-14T05:34:29.553Z,11.90
2022-12-14T05:36:56.413Z,12.70
2022-12-14T05:39:23.092Z,12.80
2022-12-14T05:41:49.775Z,12.50
2022-12-14T05:44:16.456Z,11.80
2022-12-14T05:46:43.059Z,11.50
2022-12-14T05:49:09.768Z,11.50
2022-12-14T05:51:36.427Z,11.20
2022-12-14T05:54:03.179Z,12.40
2022-12-14T05:56:29.792Z,11.40
2022-12-14T05:58:56.509Z,10.10
2022-12-14T06:01:23.171Z,11.20
2022-12-14T06:03:53.307Z,10.40
2022-12-14T06:06:19.955Z,10.40
2022-12-14T06:08:46.759Z,12.60
2022-12-14T06:11:15.224Z,12.60
2022-12-14T06:13:42.024Z,10.90
2022-12-14T06:16:10.461Z,10.10
2022-12-14T06:18:40.307Z,12.10
2022-12-14T06:21:07.028Z,11.90
2022-12-14T06:23:33.639Z,11.20
2022-12-14T11:17:41.195Z,14.90
2022-12-14T11:20:17.458Z,13.60
2022-12-14T11:22:57.938Z,13.50
2022-12-14T11:25:31.151Z,12.90
2022-12-14T11:28:30.094Z,11.90
2022-12-14T11:31:27.142Z,13.40
2022-12-14T11:33:55.038Z,13.00
2022-12-14T11:36:31.262Z,11.80
2022-12-14T11:39:18.438Z,14.00
2022-12-14T11:41:49.982Z,13.20
2022-12-14T11:44:16.595Z,15.90
2022-12-14T11:46:56.412Z,24.40
2022-12-14T11:49:34.175Z,19.90
2022-12-14T11:52:18.524Z,27.90
2022-12-14T11:55:02.285Z,24.70
2022-12-14T11:57:36.360Z,24.70
2022-12-14T12:00:08.320Z,17.10
2022-12-14T12:02:37.153Z,17.30
2022-12-14T12:05:08.288Z,32.70
2022-12-14T12:07:36.159Z,18.50
2022-12-14T12:10:05.913Z,13.70
2022-12-14T12:12:32.602Z,18.60
2022-12-14T12:14:59.287Z,21.70
2022-12-14T12:17:42.863Z,28.40
2022-12-14T12:20:23.860Z,21.20
2022-12-14T12:22:52.763Z,14.20
2022-12-14T12:25:32.197Z,10.80
2022-12-14T12:28:06.083Z,9.30
2022-12-14T12:30:34.262Z,9.00
2022-12-14T12:33:06.049Z,9.40
2022-12-14T12:35:37.742Z,9.60
2022-12-14T12:38:18.787Z,9.30
2022-12-14T12:40:57.745Z,10.10
2022-12-14T12:43:34.504Z,8.60
2022-12-14T12:46:05.545Z,10.00
2022-12-14T12:48:41.627Z,9.70
2022-12-14T12:51:12.337Z,9.60
2022-12-14T12:53:41.714Z,10.50
2022-12-14T12:56:11.005Z,9.50
2022-12-14T12:58:38.260Z,11.00
2022-12-14T13:01:16.126Z,9.70
2022-12-14T13:03:45.771Z,10.30
2022-12-14T13:06:22.176Z,10.70
2022-12-14T13:08:51.962Z,12.30
2022-12-14T13:11:26.544Z,14.50
2022-12-14T13:13:56.674Z,15.50
2022-12-14T13:16:39.272Z,13.00
2022-12-14T13:22:18.713Z,14.80
2022-12-14T13:24:45.721Z,19.60
2022-12-14T13:27:40.622Z,29.50
2022-12-14T13:30:38.547Z,125.90
2022-12-14T13:33:56.675Z,366.00
2022-12-14T13:37:00.821Z,300.70
2022-12-14T13:39:42.208Z,298.10
2022-12-14T13:42:15.333Z,184.70
2022-12-14T13:45:00.833Z,142.80
2022-12-14T13:47:30.006Z,69.30
2022-12-14T13:50:34.355Z,49.10
2022-12-14T13:52:46.708Z,37.30
2022-12-14T13:55:29.378Z,22.30
2022-12-14T13:58:28.236Z,19.80
2022-12-14T14:01:23.373Z,10.30
2022-12-14T14:04:11.021Z,12.80
2022-12-14T14:06:39.682Z,14.50
2022-12-14T14:09:32.835Z,16.70
2022-12-14T14:12:02.980Z,18.80
2022-12-14T14:14:41.414Z,19.30
2022-12-14T14:17:26.666Z,26.20
2022-12-14T14:19:55.109Z,26.80
2022-12-14T14:22:25.196Z,23.80
2022-12-14T14:25:12.553Z,19.10
2022-12-14T14:27:40.262Z,15.80
2022-12-14T14:30:22.185Z,15.80
2022-12-14T14:32:48.894Z,26.00
2022-12-14T14:35:35.729Z,27.70
2022-12-14T14:38:25.021Z,26.00
2022-12-14T14:43:42.572Z,25.30
2022-12-14T14:46:09.834Z,19.30
2022-12-14T14:48:41.985Z,22.10
2022-12-14T14:51:26.353Z,18.70
2022-12-14T18:56:02.851Z,55.10
2022-12-14T18:58:29.696Z,53.70
2022-12-14T19:00:58.126Z,50.60
2022-12-14T19:03:25.100Z,54.00
2022-12-14T19:05:52.293Z,54.80
2022-12-14T19:08:19.048Z,55.90
2022-12-14T19:10:48.140Z,54.30
2022-12-14T19:13:26.024Z,49.10
2022-12-14T19:15:57.713Z,52.90
2022-12-14T19:18:24.418Z,49.70
2022-12-14T19:20:51.036Z,47.90
2022-12-14T19:23:18.271Z,44.20
2022-12-14T19:25:45.390Z,45.00
2022-12-14T19:28:32.446Z,42.80
2022-12-14T19:30:59.099Z,41.30
2022-12-14T19:33:27.039Z,46.20
2022-12-14T19:35:54.019Z,43.30
2022-12-14T19:38:20.692Z,45.30
2022-12-14T19:41:04.299Z,44.20
2022-12-14T19:43:31.430Z,48.00
2022-12-14T19:45:58.475Z,44.70
2022-12-14T19:48:25.324Z,44.90
2022-12-14T19:50:52.010Z,44.50
2022-12-14T19:53:23.902Z,41.80
2022-12-14T19:55:53.839Z,42.00
2022-12-14T19:58:22.128Z,42.70
2022-12-14T20:00:49.953Z,43.70
2022-12-14T20:03:16.730Z,40.70
2022-12-14T20:06:09.846Z,40.70
2022-12-14T20:08:36.546Z,40.20
2022-12-14T20:11:07.947Z,38.20
2022-12-14T20:13:35.050Z,40.40
2022-12-14T20:16:02.185Z,39.60
2022-12-14T20:18:29.584Z,37.80
2022-12-14T20:21:03.831Z,39.80
2022-12-14T20:23:31.502Z,40.10
2022-12-14T20:26:02.451Z,39.80
2022-12-14T20:28:29.152Z,43.00
2022-12-14T20:30:55.877Z,40.50
2022-12-14T20:33:28.088Z,39.40
2022-12-14T20:35:56.847Z,40.70
2022-12-14T20:38:23.546Z,40.50
2022-12-14T20:40:50.182Z,43.80
2022-12-14T20:43:16.908Z,42.90
2022-12-14T20:45:46.673Z,44.00
2022-12-14T20:48:13.330Z,44.70
2022-12-14T20:50:41.728Z,42.50
2022-12-14T20:53:08.437Z,43.50
2022-12-14T20:55:35.196Z,44.00
2022-12-14T20:58:01.911Z,44.30
2022-12-14T21:00:28.834Z,45.70
2022-12-14T21:02:55.673Z,47.80
2022-12-14T21:05:22.511Z,48.00
2022-12-14T21:07:49.154Z,47.00
2022-12-14T21:10:15.893Z,42.00
2022-12-14T21:12:42.539Z,43.00
2022-12-14T21:15:09.322Z,42.90
2022-12-14T21:17:35.982Z,46.50
2022-12-14T21:20:02.902Z,44.50
2022-12-14T21:22:30.534Z,41.90
2022-12-14T21:25:06.119Z,40.80
2022-12-14T21:27:33.650Z,41.90
2022-12-14T21:30:00.645Z,41.90
2022-12-14T21:32:27.538Z,42.50
2022-12-14T21:34:54.223Z,43.40
2022-12-14T21:37:21.010Z,39.90
2022-12-14T21:39:54.342Z,41.20
2022-12-14T21:42:22.036Z,42.00
2022-12-14T21:44:49.574Z,44.80
2022-12-14T21:47:17.776Z,42.70
2022-12-14T21:49:44.854Z,39.40
2022-12-14T21:52:13.021Z,40.30
2022-12-14T21:54:39.969Z,38.80
2022-12-14T21:57:25.579Z,38.70
2022-12-14T21:59:52.198Z,37.10
2022-12-14T22:02:20.819Z,37.80
2022-12-14T22:04:47.709Z,38.50
2022-12-14T22:07:18.438Z,38.40
2022-12-14T22:09:49.599Z,38.70
2022-12-14T22:12:17.317Z,37.20
2022-12-14T22:14:43.927Z,38.30
2022-12-14T22:17:11.165Z,37.60
2022-12-14T22:19:56.576Z,39.30
2022-12-14T22:22:23.281Z,35.50
2022-12-14T22:24:51.046Z,35.70
2022-12-14T22:27:18.048Z,35.50
2022-12-14T22:29:44.737Z,37.60
2022-12-14T22:32:12.265Z,35.20
2022-12-14T22:34:39.183Z,33.80
2022-12-14T22:37:05.953Z,34.60
2022-12-14T22:39:32.660Z,33.80
2022-12-14T22:41:59.727Z,33.80
2022-12-14T22:44:26.479Z,32.10
2022-12-14T22:46:53.115Z,32.60
2022-12-14T22:49:20.327Z,32.90
2022-12-14T22:51:47.173Z,31.30
2022-12-14T22:54:32.015Z,32.60
2022-12-14T22:57:00.791Z,30.70
2022-12-14T22:59:42.975Z,30.80
2022-12-14T23:02:09.970Z,25.00
2022-12-14T23:04:37.425Z,24.50
2022-12-14T23:07:04.186Z,24.10
2022-12-14T23:09:49.547Z,26.60
2022-12-14T23:12:35.023Z,20.70
2022-12-14T23:15:20.399Z,24.40
2022-12-14T23:18:05.955Z,20.60
2022-12-14T23:20:51.283Z,18.90
2022-12-14T23:23:36.745Z,18.80
2022-12-14T23:26:22.147Z,15.80
2022-12-14T23:29:07.525Z,17.30
2022-12-14T23:31:52.861Z,15.40
2022-12-14T23:34:37.905Z,16.00
2022-12-14T23:37:23.229Z,17.50
2022-12-14T23:40:08.747Z,15.80
2022-12-14T23:42:54.119Z,16.10
2022-12-14T23:45:39.526Z,15.60
2022-12-14T23:48:24.913Z,16.60
2022-12-14T23:51:10.330Z,15.60
2022-12-14T23:53:55.734Z,12.80
2022-12-14T23:56:41.088Z,15.60
2022-12-14T23:59:31.832Z,14.90
